Time;durP1;ratioP1;P1;durP2;ratioP2;P2;SDS_P1;SDS_P2;PMS_P1;PMS_P2;Temp;Humidity;BMP_temperature;BMP_pressure;BME280_temperature;BME280_humidity;BME280_pressure;Samples;Min_cycle;Max_cycle;Signal;HPM_P1;HPM_P2
2020/12/21 00:00:18;;;;;;;37.53;14.73;;;0.00;99.90;;;;;;5065434;28;20201;-70
2020/12/21 00:02:46;;;;;;;33.57;13.73;;;0.00;99.90;;;;;;5047867;28;20288;-70
2020/12/21 00:05:13;;;;;;;49.73;14.37;;;0.00;99.90;;;;;;5082590;28;20792;-70
2020/12/21 00:07:40;;;;;;;39.17;13.67;;;0.00;99.90;;;;;;5079401;28;20588;-70
2020/12/21 00:10:07;;;;;;;47.93;16.03;;;0.00;99.90;;;;;;5048756;28;20201;-70
2020/12/21 00:12:37;;;;;;;49.27;14.60;;;0.00;99.90;;;;;;5048691;28;20774;-69
2020/12/21 00:15:05;;;;;;;41.10;14.03;;;0.10;99.90;;;;;;5046019;28;20684;-70
2020/12/21 00:17:34;;;;;;;31.00;12.60;;;0.00;99.90;;;;;;5003245;28;20619;-70
2020/12/21 00:20:01;;;;;;;28.33;11.70;;;0.10;99.90;;;;;;5003728;28;20211;-70
2020/12/21 00:22:27;;;;;;;29.77;12.13;;;0.10;99.90;;;;;;4990388;28;20225;-70
2020/12/21 00:24:54;;;;;;;31.57;11.40;;;0.10;99.90;;;;;;4953112;29;20259;-70
2020/12/21 00:27:20;;;;;;;37.60;12.67;;;0.20;99.90;;;;;;4952236;28;20209;-69
2020/12/21 00:29:47;;;;;;;35.97;12.17;;;0.20;99.90;;;;;;4951060;28;20220;-69
2020/12/21 00:32:13;;;;;;;38.63;15.87;;;0.20;99.90;;;;;;4971481;28;20700;-69
2020/12/21 00:34:41;;;;;;;38.37;14.83;;;0.20;99.90;;;;;;4972008;28;20236;-69
2020/12/21 00:37:08;;;;;;;35.10;15.23;;;0.30;99.90;;;;;;4971814;28;20787;-69
2020/12/21 00:39:34;;;;;;;54.17;17.73;;;0.20;99.90;;;;;;4972198;28;20689;-69
2020/12/21 00:42:01;;;;;;;73.87;19.63;;;0.30;99.90;;;;;;4989404;28;20282;-69
2020/12/21 00:44:27;;;;;;;49.97;18.53;;;0.20;99.90;;;;;;4995229;28;20204;-69
2020/12/21 00:46:54;;;;;;;47.90;17.37;;;0.20;99.90;;;;;;4990605;28;20235;-69
2020/12/21 00:49:21;;;;;;;37.47;14.43;;;0.20;99.90;;;;;;5023219;28;20643;-69
2020/12/21 00:51:48;;;;;;;39.87;15.03;;;0.20;99.90;;;;;;5030601;28;20203;-69
2020/12/21 00:54:15;;;;;;;40.07;15.53;;;0.20;99.90;;;;;;5050248;28;20243;-69
2020/12/21 00:56:41;;;;;;;50.50;16.30;;;0.30;99.90;;;;;;5050060;28;20215;-69
2020/12/21 00:59:08;;;;;;;43.37;16.90;;;0.20;99.90;;;;;;5048857;28;20242;-69
2020/12/21 01:01:35;;;;;;;36.07;14.40;;;0.20;99.90;;;;;;5049174;28;20217;-69
2020/12/21 01:04:04;;;;;;;30.43;13.70;;;0.20;99.90;;;;;;5073587;28;20605;-69
2020/12/21 01:06:32;;;;;;;37.03;14.97;;;0.20;99.90;;;;;;5072938;28;20201;-69
2020/12/21 01:09:01;;;;;;;34.13;14.27;;;0.30;99.90;;;;;;5073910;28;20236;-69
2020/12/21 01:11:29;;;;;;;36.17;13.90;;;0.20;99.90;;;;;;5070071;28;20201;-69
2020/12/21 01:13:55;;;;;;;33.87;13.50;;;0.30;99.90;;;;;;5068917;28;20291;-69
2020/12/21 01:16:22;;;;;;;29.67;12.63;;;0.30;99.90;;;;;;5076974;28;20671;-69
2020/12/21 01:18:49;;;;;;;34.80;12.93;;;0.30;99.90;;;;;;5079974;28;20238;-69
2020/12/21 01:21:26;;;;;;;28.23;11.43;;;0.40;99.90;;;;;;5084148;28;20225;-69
2020/12/21 01:23:53;;;;;;;35.37;14.53;;;0.40;99.90;;;;;;5081423;28;20226;-69
2020/12/21 01:26:21;;;;;;;42.23;15.10;;;0.40;99.90;;;;;;5070259;28;20213;-69
2020/12/21 01:28:48;;;;;;;35.40;14.60;;;0.40;99.90;;;;;;5067864;28;20260;-69
2020/12/21 01:31:16;;;;;;;31.20;12.70;;;0.40;99.90;;;;;;5009667;28;20202;-69
2020/12/21 01:33:43;;;;;;;32.17;13.03;;;0.40;99.90;;;;;;5022953;28;20214;-69
2020/12/21 01:36:09;;;;;;;38.97;14.47;;;0.50;99.90;;;;;;5016705;28;20214;-69
2020/12/21 01:38:36;;;;;;;34.30;14.33;;;0.50;99.90;;;;;;4996821;28;20210;-69
2020/12/21 01:41:03;;;;;;;37.33;14.77;;;0.50;99.90;;;;;;4992924;28;20278;-69
2020/12/21 01:43:30;;;;;;;35.57;14.13;;;0.50;99.90;;;;;;4989674;28;20227;-69
2020/12/21 01:45:57;;;;;;;41.37;16.47;;;0.50;99.90;;;;;;4976236;28;20235;-69
2020/12/21 01:48:23;;;;;;;39.53;14.90;;;0.50;99.90;;;;;;4989649;28;20672;-69
2020/12/21 01:50:50;;;;;;;35.80;14.07;;;0.40;99.90;;;;;;4974774;28;20286;-69
2020/12/21 01:53:17;;;;;;;35.37;14.17;;;0.50;99.90;;;;;;4945231;29;20205;-69
2020/12/21 01:55:44;;;;;;;42.97;14.83;;;0.60;99.90;;;;;;4951417;28;20216;-69
2020/12/21 01:58:11;;;;;;;37.20;14.93;;;0.60;99.90;;;;;;4950675;28;20228;-69
2020/12/21 02:00:38;;;;;;;30.17;12.97;;;0.60;99.90;;;;;;4949534;29;20697;-69
2020/12/21 02:03:08;;;;;;;33.57;13.00;;;0.60;99.90;;;;;;4967088;28;20259;-69
2020/12/21 02:05:36;;;;;;;36.47;13.80;;;0.60;99.90;;;;;;4968593;28;20216;-69
2020/12/21 02:08:03;;;;;;;32.50;14.07;;;0.60;99.90;;;;;;4996968;28;20230;-69
2020/12/21 02:10:31;;;;;;;34.70;13.63;;;0.60;99.90;;;;;;5009344;28;20287;-69
2020/12/21 02:12:57;;;;;;;36.20;14.03;;;0.60;99.90;;;;;;4996727;28;20231;-69
2020/12/21 02:15:24;;;;;;;34.20;13.87;;;0.60;99.90;;;;;;4998538;28;20213;-69
2020/12/21 02:17:53;;;;;;;42.43;15.27;;;0.60;99.90;;;;;;5035287;28;20252;-70
2020/12/21 02:20:28;;;;;;;42.63;14.67;;;0.60;99.90;;;;;;5034293;28;20214;-70
2020/12/21 02:22:54;;;;;;;43.03;15.67;;;0.70;99.90;;;;;;5031624;28;20205;-70
2020/12/21 02:25:21;;;;;;;35.87;13.80;;;0.70;99.90;;;;;;5050854;28;20209;-70
2020/12/21 02:27:47;;;;;;;39.27;15.20;;;0.70;99.90;;;;;;5008531;28;20199;-70
2020/12/21 02:30:14;;;;;;;46.67;17.03;;;0.70;99.90;;;;;;5006882;28;20238;-70
2020/12/21 02:32:41;;;;;;;48.33;19.00;;;0.80;99.90;;;;;;5008473;28;20317;-70
2020/12/21 02:35:07;;;;;;;48.93;19.37;;;0.80;99.90;;;;;;5007774;28;20207;-70
2020/12/21 02:37:35;;;;;;;47.83;17.60;;;0.80;99.90;;;;;;5008937;28;20207;-68
2020/12/21 02:40:01;;;;;;;46.33;17.53;;;0.80;99.90;;;;;;5009713;28;20214;-68
2020/12/21 02:42:28;;;;;;;47.80;16.50;;;0.80;99.90;;;;;;5025529;28;20248;-69
2020/12/21 02:44:55;;;;;;;50.90;18.70;;;0.80;99.90;;;;;;5044473;28;20232;-69
2020/12/21 02:47:21;;;;;;;44.47;17.10;;;0.80;99.90;;;;;;5067919;28;20213;-68
2020/12/21 02:49:48;;;;;;;50.60;17.97;;;0.80;99.90;;;;;;5068611;28;20212;-68
2020/12/21 02:52:15;;;;;;;41.10;15.17;;;0.80;99.90;;;;;;5067977;28;20210;-68
2020/12/21 02:54:43;;;;;;;42.33;15.43;;;0.80;99.90;;;;;;5073032;28;20193;-68
2020/12/21 02:57:09;;;;;;;37.03;15.30;;;0.80;99.90;;;;;;5072772;28;20201;-69
2020/12/21 02:59:36;;;;;;;40.83;14.97;;;0.80;99.90;;;;;;5080131;28;20211;-68
2020/12/21 03:02:03;;;;;;;41.90;15.87;;;0.90;99.90;;;;;;5092690;28;20216;-69
2020/12/21 03:04:29;;;;;;;37.70;15.17;;;0.90;99.90;;;;;;5094208;28;20579;-68
2020/12/21 03:06:56;;;;;;;35.97;14.40;;;0.90;99.90;;;;;;5088393;28;20200;-68
2020/12/21 03:09:23;;;;;;;39.47;15.97;;;0.90;99.90;;;;;;5095009;28;20615;-69
2020/12/21 03:11:51;;;;;;;41.00;17.47;;;1.00;99.90;;;;;;5095404;28;20196;-69
2020/12/21 03:14:17;;;;;;;49.17;17.97;;;0.90;99.90;;;;;;5086921;28;20208;-69
2020/12/21 03:16:44;;;;;;;39.13;14.73;;;0.90;99.90;;;;;;5086592;28;20203;-69
2020/12/21 03:19:10;;;;;;;34.93;15.23;;;0.90;99.90;;;;;;5048478;28;20682;-69
2020/12/21 03:21:37;;;;;;;40.83;16.00;;;1.00;99.90;;;;;;5048318;28;20278;-69
2020/12/21 03:24:04;;;;;;;43.30;16.20;;;1.00;99.90;;;;;;5046008;28;20300;-69
2020/12/21 03:26:30;;;;;;;42.63;16.20;;;1.00;99.90;;;;;;5040288;28;20644;-69
2020/12/21 03:28:58;;;;;;;30.77;12.93;;;1.00;99.90;;;;;;5047292;28;20206;-69
2020/12/21 03:31:24;;;;;;;34.47;12.73;;;1.00;99.90;;;;;;5080586;28;20203;-69
2020/12/21 03:33:51;;;;;;;34.30;14.87;;;1.00;99.90;;;;;;5089107;28;20216;-69
2020/12/21 03:36:17;;;;;;;38.90;15.50;;;1.00;99.90;;;;;;5076815;28;20663;-69
2020/12/21 03:38:44;;;;;;;36.90;14.80;;;1.00;99.90;;;;;;5090402;28;20208;-69
2020/12/21 03:41:10;;;;;;;40.57;14.73;;;1.00;99.90;;;;;;5089023;28;20260;-69
2020/12/21 03:43:37;;;;;;;32.47;13.10;;;1.10;99.90;;;;;;5087428;28;20208;-69
2020/12/21 03:46:04;;;;;;;34.07;14.00;;;1.00;99.90;;;;;;5093383;28;20276;-69
2020/12/21 03:48:31;;;;;;;39.13;15.50;;;1.10;99.90;;;;;;5088825;28;20211;-69
2020/12/21 03:50:58;;;;;;;43.73;16.93;;;1.10;99.90;;;;;;5080752;28;20200;-69
2020/12/21 03:53:24;;;;;;;43.93;17.83;;;1.10;99.90;;;;;;5071500;28;20365;-69
2020/12/21 03:55:51;;;;;;;42.70;17.07;;;1.10;99.90;;;;;;5076908;28;20228;-69
2020/12/21 03:58:17;;;;;;;41.37;16.60;;;1.10;99.90;;;;;;5098732;28;20309;-69
2020/12/21 04:00:44;;;;;;;40.77;16.30;;;1.10;99.90;;;;;;5073668;28;20197;-68
2020/12/21 04:03:11;;;;;;;39.73;15.57;;;1.10;99.90;;;;;;5077678;28;20239;-69
2020/12/21 04:05:38;;;;;;;34.07;14.60;;;1.10;99.90;;;;;;5078567;28;20220;-68
2020/12/21 04:08:04;;;;;;;39.00;15.33;;;1.10;99.90;;;;;;5080634;28;20225;-69
2020/12/21 04:10:31;;;;;;;34.40;14.53;;;1.10;99.90;;;;;;5067894;28;20236;-69
2020/12/21 04:12:57;;;;;;;41.43;15.20;;;1.20;99.90;;;;;;5054162;28;20213;-69
2020/12/21 04:15:24;;;;;;;44.37;18.37;;;1.20;99.90;;;;;;5064056;28;20205;-69
2020/12/21 04:17:51;;;;;;;44.07;16.90;;;1.20;99.90;;;;;;5053768;28;20219;-69
2020/12/21 04:20:18;;;;;;;44.30;17.10;;;1.20;99.90;;;;;;5056622;28;20311;-69
2020/12/21 04:22:45;;;;;;;35.93;16.00;;;1.30;99.90;;;;;;5063865;28;20486;-68
2020/12/21 04:25:12;;;;;;;36.83;15.77;;;1.20;99.90;;;;;;5058027;28;20802;-69
2020/12/21 04:27:38;;;;;;;40.80;17.60;;;1.20;99.90;;;;;;5091257;28;20195;-69
2020/12/21 04:30:06;;;;;;;40.83;15.63;;;1.20;99.90;;;;;;5084657;28;20576;-69
2020/12/21 04:32:32;;;;;;;37.70;15.27;;;1.20;99.90;;;;;;5107931;28;20196;-69
2020/12/21 04:34:59;;;;;;;36.33;15.13;;;1.20;99.90;;;;;;5113560;28;20218;-69
2020/12/21 04:37:27;;;;;;;38.17;16.00;;;1.30;99.90;;;;;;5116694;27;20195;-69
2020/12/21 04:39:53;;;;;;;35.23;15.07;;;1.30;99.90;;;;;;5113002;27;20200;-69
2020/12/21 04:42:23;;;;;;;33.80;14.70;;;1.30;99.90;;;;;;5092024;28;20277;-69
2020/12/21 04:44:50;;;;;;;40.27;15.63;;;1.30;99.90;;;;;;5091272;28;20680;-69
2020/12/21 04:47:18;;;;;;;38.47;15.77;;;1.40;99.90;;;;;;5090113;28;20593;-69
2020/12/21 04:49:45;;;;;;;44.33;16.27;;;1.30;99.90;;;;;;5093243;28;20561;-69
2020/12/21 04:52:13;;;;;;;45.97;17.83;;;1.30;99.90;;;;;;5095885;28;20203;-69
2020/12/21 04:54:41;;;;;;;47.20;17.70;;;1.30;99.90;;;;;;5090874;28;20737;-68
2020/12/21 04:57:08;;;;;;;52.70;19.70;;;1.30;99.90;;;;;;5094587;28;20200;-68
2020/12/21 04:59:34;;;;;;;50.00;19.20;;;1.30;99.90;;;;;;5053344;28;20628;-69
2020/12/21 05:02:04;;;;;;;46.40;18.33;;;1.30;99.90;;;;;;5053608;28;20225;-68
2020/12/21 05:04:31;;;;;;;45.07;17.97;;;1.30;99.90;;;;;;5054161;28;20662;-69
2020/12/21 05:06:57;;;;;;;44.73;17.60;;;1.40;99.90;;;;;;5050278;28;20193;-68
2020/12/21 05:09:25;;;;;;;48.97;19.10;;;1.40;99.90;;;;;;5014798;28;20762;-69
2020/12/21 05:11:57;;;;;;;46.67;18.37;;;1.40;99.90;;;;;;5011475;28;20210;-68
2020/12/21 05:14:33;;;;;;;36.17;15.33;;;1.40;99.90;;;;;;5016208;28;20631;-69
2020/12/21 05:17:15;;;;;;;45.53;17.40;;;1.40;99.90;;;;;;5020089;28;20562;-69
2020/12/21 05:19:43;;;;;;;42.90;16.57;;;1.40;99.90;;;;;;5016350;28;20741;-69
2020/12/21 05:22:13;;;;;;;40.30;16.20;;;1.50;99.90;;;;;;5017419;28;20247;-69
2020/12/21 05:24:40;;;;;;;44.40;17.33;;;1.40;99.90;;;;;;4999628;28;20265;-69
2020/12/21 05:27:15;;;;;;;55.00;19.47;;;1.50;99.90;;;;;;4994126;28;20310;-68
2020/12/21 05:29:41;;;;;;;59.53;19.80;;;1.40;99.90;;;;;;5013874;28;20206;-69
2020/12/21 05:32:18;;;;;;;59.83;21.00;;;1.40;99.90;;;;;;5009671;28;20245;-69
2020/12/21 05:34:44;;;;;;;56.97;19.67;;;1.40;99.90;;;;;;5009942;28;20460;-68
2020/12/21 05:37:14;;;;;;;55.13;20.10;;;1.50;99.90;;;;;;4991586;28;20235;-69
2020/12/21 05:39:51;;;;;;;53.00;20.67;;;1.50;99.90;;;;;;4993152;28;20215;-69
2020/12/21 05:42:18;;;;;;;58.07;22.23;;;1.40;99.90;;;;;;4993799;28;20860;-68
2020/12/21 05:44:53;;;;;;;59.87;21.93;;;1.50;99.90;;;;;;5012689;28;20230;-68
2020/12/21 05:47:19;;;;;;;69.07;24.87;;;1.50;99.90;;;;;;5018721;28;20210;-69
2020/12/21 05:49:53;;;;;;;69.77;25.40;;;1.50;99.90;;;;;;5009326;28;20405;-69
2020/12/21 05:52:27;;;;;;;71.90;26.37;;;1.50;99.90;;;;;;5014583;28;20219;-69
2020/12/21 05:54:54;;;;;;;69.47;26.43;;;1.50;99.90;;;;;;5018395;28;20704;-69
2020/12/21 05:57:26;;;;;;;83.13;29.60;;;1.50;99.90;;;;;;5035388;28;20220;-69
2020/12/21 05:59:55;;;;;;;86.63;33.13;;;1.50;99.90;;;;;;5034656;28;20214;-69
2020/12/21 06:02:21;;;;;;;85.93;32.33;;;1.50;99.90;;;;;;5037545;28;20563;-69
2020/12/21 06:04:49;;;;;;;79.77;28.97;;;1.50;99.90;;;;;;5050028;28;20282;-69
2020/12/21 06:07:22;;;;;;;67.57;26.40;;;1.50;99.90;;;;;;5047344;28;20289;-69
2020/12/21 06:09:50;;;;;;;62.37;24.03;;;1.60;99.90;;;;;;5009021;28;20420;-69
2020/12/21 06:12:20;;;;;;;64.33;25.33;;;1.70;99.90;;;;;;5009333;28;20213;-69
2020/12/21 06:14:50;;;;;;;55.00;22.40;;;1.60;99.90;;;;;;4983237;28;20230;-69
2020/12/21 06:17:17;;;;;;;49.57;19.53;;;1.60;99.90;;;;;;4989015;28;20239;-69
2020/12/21 06:19:44;;;;;;;48.00;19.53;;;1.70;99.90;;;;;;4989195;28;20604;-69
2020/12/21 06:22:10;;;;;;;50.80;20.40;;;1.70;99.90;;;;;;4960827;28;20277;-69
2020/12/21 06:24:38;;;;;;;45.67;18.37;;;1.80;99.90;;;;;;4949846;28;20213;-69
2020/12/21 06:27:13;;;;;;;42.63;17.43;;;1.80;99.90;;;;;;4950568;28;20267;-69
2020/12/21 06:29:42;;;;;;;43.13;16.93;;;1.80;99.90;;;;;;4949178;29;20645;-69
2020/12/21 06:32:10;;;;;;;40.83;17.97;;;1.90;99.90;;;;;;4968766;28;20229;-69
2020/12/21 06:34:38;;;;;;;50.63;19.60;;;1.90;99.90;;;;;;4969691;28;20691;-68
2020/12/21 06:37:06;;;;;;;50.70;20.07;;;1.90;99.90;;;;;;4969558;28;20208;-68
2020/12/21 06:39:34;;;;;;;53.07;22.43;;;1.90;99.90;;;;;;4969590;28;20208;-69
2020/12/21 06:42:06;;;;;;;50.40;22.57;;;1.90;99.90;;;;;;4984517;28;20227;-69
2020/12/21 06:44:37;;;;;;;49.97;20.87;;;1.90;99.90;;;;;;4994107;28;20671;-69
2020/12/21 06:47:03;;;;;;;55.70;23.47;;;2.00;99.90;;;;;;5028484;28;20205;-68
2020/12/21 06:49:31;;;;;;;56.37;22.93;;;2.00;99.90;;;;;;5029274;28;20301;-69
2020/12/21 06:51:58;;;;;;;44.13;19.30;;;1.90;99.90;;;;;;5029502;28;20202;-69
2020/12/21 06:54:24;;;;;;;57.03;22.70;;;2.00;99.90;;;;;;5068184;28;20224;-69
2020/12/21 06:56:52;;;;;;;55.30;20.90;;;2.00;99.90;;;;;;5067834;28;20686;-69
2020/12/21 06:59:20;;;;;;;51.50;20.10;;;2.00;99.90;;;;;;5067033;28;20205;-69
2020/12/21 07:01:48;;;;;;;48.57;19.67;;;2.00;99.90;;;;;;5067780;28;20224;-69
2020/12/21 07:04:18;;;;;;;48.00;18.87;;;2.10;99.90;;;;;;5054287;28;20224;-69
2020/12/21 07:06:46;;;;;;;49.33;20.27;;;2.10;99.90;;;;;;5058474;28;20267;-69
2020/12/21 07:09:14;;;;;;;51.20;19.07;;;2.20;99.90;;;;;;5055473;28;20240;-68
2020/12/21 07:11:42;;;;;;;41.77;18.10;;;2.20;99.90;;;;;;5009904;28;20339;-69
2020/12/21 07:14:12;;;;;;;46.50;18.53;;;2.20;99.90;;;;;;5007614;28;20241;-68
2020/12/21 07:16:39;;;;;;;45.17;18.13;;;2.20;99.90;;;;;;5008558;28;20215;-69
2020/12/21 07:19:05;;;;;;;48.40;18.43;;;2.20;99.90;;;;;;5009162;28;20202;-69
2020/12/21 07:21:32;;;;;;;51.40;20.37;;;2.20;99.90;;;;;;5009157;28;20662;-68
2020/12/21 07:23:59;;;;;;;44.27;20.13;;;2.30;99.90;;;;;;5026198;28;20217;-69
2020/12/21 07:26:27;;;;;;;50.17;22.67;;;2.30;99.90;;;;;;5026019;28;20214;-68
2020/12/21 07:28:54;;;;;;;48.87;20.77;;;2.30;99.90;;;;;;5010858;28;20681;-68
2020/12/21 07:31:22;;;;;;;53.23;21.27;;;2.40;99.90;;;;;;5011761;28;20230;-69
2020/12/21 07:33:51;;;;;;;53.70;22.47;;;2.30;99.90;;;;;;5012997;28;20219;-68
2020/12/21 07:36:18;;;;;;;61.27;24.90;;;2.30;99.90;;;;;;5050870;28;20201;-69
2020/12/21 07:38:45;;;;;;;73.93;27.03;;;2.30;99.90;;;;;;5052598;28;20670;-69
2020/12/21 07:41:23;;;;;;;59.77;25.03;;;2.20;99.90;;;;;;5051825;28;20229;-68
2020/12/21 07:44:00;;;;;;;70.83;26.90;;;2.10;99.90;;;;;;5072445;28;20236;-69
2020/12/21 07:46:28;;;;;;;69.47;26.43;;;2.10;99.90;;;;;;5061943;28;20207;-69
2020/12/21 07:48:56;;;;;;;65.73;24.53;;;2.10;99.90;;;;;;5075098;28;20262;-68
2020/12/21 07:51:23;;;;;;;63.73;23.60;;;2.00;99.90;;;;;;5075525;28;20189;-69
2020/12/21 07:53:50;;;;;;;65.87;23.17;;;2.00;99.90;;;;;;5030852;28;20206;-69
2020/12/21 07:56:18;;;;;;;74.07;26.23;;;2.00;99.90;;;;;;5031526;28;20210;-69
2020/12/21 07:58:45;;;;;;;71.00;26.97;;;2.00;99.90;;;;;;5034770;28;20230;-69
2020/12/21 08:01:12;;;;;;;75.30;26.33;;;2.00;99.90;;;;;;5050527;28;20206;-69
2020/12/21 08:03:41;;;;;;;69.27;25.13;;;2.00;99.90;;;;;;5061636;28;20235;-68
2020/12/21 08:06:10;;;;;;;61.20;25.07;;;2.00;99.90;;;;;;5051216;28;20202;-69
2020/12/21 08:08:38;;;;;;;70.07;26.77;;;2.10;99.90;;;;;;5064157;28;20232;-68
2020/12/21 08:11:07;;;;;;;71.67;27.77;;;2.10;99.90;;;;;;5050788;28;20208;-69
2020/12/21 08:13:36;;;;;;;66.37;24.77;;;2.10;99.90;;;;;;5074225;28;20203;-68
2020/12/21 08:16:07;;;;;;;72.57;25.47;;;2.20;99.90;;;;;;5091632;28;20645;-68
2020/12/21 08:18:34;;;;;;;68.27;24.73;;;2.30;99.90;;;;;;5096989;28;20333;-69
2020/12/21 08:21:01;;;;;;;64.07;24.90;;;2.40;99.90;;;;;;5092886;28;20765;-69
2020/12/21 08:23:29;;;;;;;72.97;26.90;;;2.40;99.90;;;;;;5101328;28;20196;-69
2020/12/21 08:25:57;;;;;;;76.07;29.47;;;2.50;99.90;;;;;;5086364;28;20307;-69
2020/12/21 08:28:32;;;;;;;79.00;29.23;;;2.50;99.90;;;;;;5090303;28;20230;-68
2020/12/21 08:31:07;;;;;;;75.60;28.77;;;2.60;99.90;;;;;;5095666;28;20223;-68
2020/12/21 08:33:37;;;;;;;67.03;27.90;;;2.60;99.90;;;;;;5113715;28;20203;-68
2020/12/21 08:36:19;;;;;;;67.50;27.03;;;2.70;99.90;;;;;;5112848;28;20203;-69
2020/12/21 08:38:46;;;;;;;54.83;22.10;;;2.80;99.90;;;;;;5111171;28;20278;-68
2020/12/21 08:41:13;;;;;;;56.90;22.07;;;2.90;99.90;;;;;;5113700;28;20226;-69
2020/12/21 08:43:39;;;;;;;68.83;26.17;;;3.00;99.90;;;;;;5113059;27;20199;-69
2020/12/21 08:46:11;;;;;;;78.60;30.03;;;3.10;99.90;;;;;;5110683;27;20208;-69
2020/12/21 08:48:42;;;;;;;84.73;30.47;;;3.10;99.90;;;;;;5110989;27;20294;-69
2020/12/21 08:51:12;;;;;;;74.73;29.30;;;3.20;99.90;;;;;;5114546;27;20231;-69
2020/12/21 08:53:39;;;;;;;93.10;33.60;;;3.20;99.90;;;;;;5113784;27;20207;-69
2020/12/21 08:56:14;;;;;;;86.33;32.17;;;3.20;99.90;;;;;;5106669;27;20286;-69
2020/12/21 08:58:40;;;;;;;78.20;29.17;;;3.20;99.90;;;;;;5104244;28;20276;-69
2020/12/21 09:01:09;;;;;;;75.03;28.93;;;3.20;99.90;;;;;;5104186;28;20200;-69
2020/12/21 09:03:36;;;;;;;78.13;30.87;;;3.30;99.90;;;;;;5100140;28;20446;-69
2020/12/21 09:06:04;;;;;;;75.30;27.40;;;3.30;99.90;;;;;;5109792;28;20761;-68
2020/12/21 09:08:31;;;;;;;67.70;28.37;;;3.40;99.90;;;;;;5115035;27;20242;-69
2020/12/21 09:10:57;;;;;;;73.50;28.40;;;3.50;99.90;;;;;;5112438;27;20302;-69
2020/12/21 09:13:24;;;;;;;82.23;31.30;;;3.50;99.90;;;;;;5111652;27;20280;-68
2020/12/21 09:15:50;;;;;;;73.37;29.17;;;3.60;99.90;;;;;;5109327;28;20235;-69
2020/12/21 09:18:18;;;;;;;76.67;32.13;;;3.60;99.90;;;;;;5122454;27;20199;-68
2020/12/21 09:20:45;;;;;;;76.60;29.60;;;3.60;99.90;;;;;;5090081;28;20231;-69
2020/12/21 09:23:15;;;;;;;83.60;32.90;;;3.70;99.90;;;;;;5089449;28;20758;-68
2020/12/21 09:25:41;;;;;;;87.87;33.47;;;3.70;99.90;;;;;;5078860;28;20220;-69
2020/12/21 09:28:08;;;;;;;89.20;35.53;;;3.80;99.90;;;;;;5089206;28;20196;-69
2020/12/21 09:30:35;;;;;;;89.80;35.33;;;3.90;99.90;;;;;;5087718;28;20236;-69
2020/12/21 09:33:01;;;;;;;86.80;34.03;;;4.00;99.90;;;;;;5090274;28;20227;-69
2020/12/21 09:35:29;;;;;;;87.47;31.63;;;4.20;99.90;;;;;;5091273;28;20549;-69
2020/12/21 09:37:56;;;;;;;72.90;28.53;;;4.40;99.90;;;;;;5093028;28;20196;-69
2020/12/21 09:40:23;;;;;;;77.33;30.13;;;4.70;99.90;;;;;;5088975;28;20201;-69
2020/12/21 09:42:49;;;;;;;69.87;28.13;;;4.90;99.90;;;;;;5087139;28;20205;-70
2020/12/21 09:45:16;;;;;;;78.00;30.43;;;5.10;99.90;;;;;;5093396;28;20227;-70
2020/12/21 09:47:44;;;;;;;73.80;29.23;;;5.20;99.90;;;;;;5097230;28;20200;-70
2020/12/21 09:50:11;;;;;;;67.87;28.83;;;5.30;99.90;;;;;;5088346;28;20671;-70
2020/12/21 09:52:38;;;;;;;86.00;33.90;;;5.50;99.90;;;;;;5106168;27;20641;-70
2020/12/21 09:55:05;;;;;;;81.77;34.23;;;5.60;99.90;;;;;;5119664;27;20189;-70
2020/12/21 09:57:32;;;;;;;87.27;35.83;;;5.70;99.90;;;;;;5119755;27;20683;-69
2020/12/21 09:59:58;;;;;;;83.83;35.53;;;5.70;99.90;;;;;;5113775;27;20553;-68
2020/12/21 10:02:25;;;;;;;69.73;29.63;;;5.80;99.90;;;;;;5118110;27;20273;-69
2020/12/21 10:04:51;;;;;;;76.70;33.43;;;5.90;99.90;;;;;;5121524;27;20197;-68
2020/12/21 10:07:18;;;;;;;82.40;32.97;;;5.90;99.90;;;;;;5112653;27;20212;-68
2020/12/21 10:09:45;;;;;;;76.03;32.97;;;5.90;99.90;;;;;;5125259;27;20197;-69
2020/12/21 10:12:15;;;;;;;66.17;29.67;;;5.90;99.90;;;;;;5119349;27;20654;-68
2020/12/21 10:14:43;;;;;;;70.43;29.67;;;6.00;99.90;;;;;;5113942;27;20258;-68
2020/12/21 10:17:09;;;;;;;68.83;27.83;;;6.00;99.90;;;;;;5130464;27;20201;-69
2020/12/21 10:19:36;;;;;;;58.73;26.63;;;6.10;99.90;;;;;;5125471;27;20197;-68
2020/12/21 10:22:03;;;;;;;58.20;26.10;;;6.20;99.90;;;;;;5077176;28;20699;-69
2020/12/21 10:24:29;;;;;;;67.57;30.13;;;6.20;99.90;;;;;;5046953;28;20209;-69
2020/12/21 10:26:57;;;;;;;75.20;31.07;;;6.20;99.90;;;;;;5048056;28;20204;-69
2020/12/21 10:29:23;;;;;;;67.37;30.93;;;6.20;99.90;;;;;;5046692;28;20212;-69
2020/12/21 10:31:50;;;;;;;62.77;27.43;;;6.10;99.90;;;;;;5046971;28;20306;-68
2020/12/21 10:34:16;;;;;;;70.77;30.37;;;6.10;99.90;;;;;;5047939;28;20746;-69
2020/12/21 10:36:43;;;;;;;68.53;29.97;;;6.10;99.90;;;;;;5018237;28;20791;-69
2020/12/21 10:39:10;;;;;;;82.93;33.53;;;6.10;99.90;;;;;;5023907;28;20209;-68
2020/12/21 10:41:36;;;;;;;85.40;34.37;;;6.10;99.90;;;;;;5020385;28;20224;-68
2020/12/21 10:44:04;;;;;;;88.10;36.87;;;6.10;99.90;;;;;;5026990;28;20652;-68
2020/12/21 10:46:30;;;;;;;88.53;36.10;;;6.10;99.90;;;;;;5047620;28;20204;-69
2020/12/21 10:48:57;;;;;;;89.77;35.87;;;6.10;99.90;;;;;;5027926;28;20322;-68
2020/12/21 10:51:27;;;;;;;85.73;34.80;;;6.10;99.90;;;;;;5028559;28;20213;-68
2020/12/21 10:53:57;;;;;;;80.83;34.20;;;6.10;99.90;;;;;;4980143;28;20247;-68
2020/12/21 10:56:24;;;;;;;74.67;32.90;;;6.20;99.90;;;;;;4969133;28;20206;-69
2020/12/21 10:58:51;;;;;;;77.17;33.37;;;6.30;99.90;;;;;;4967706;28;20230;-68
2020/12/21 11:01:19;;;;;;;86.07;36.97;;;6.20;99.90;;;;;;4968684;28;20561;-68
2020/12/21 11:03:46;;;;;;;84.23;35.13;;;6.20;99.90;;;;;;4940878;28;20220;-68
2020/12/21 11:06:19;;;;;;;84.37;36.00;;;6.20;99.90;;;;;;4911604;29;20628;-68
2020/12/21 11:08:46;;;;;;;87.67;36.37;;;6.20;99.90;;;;;;4911185;29;20247;-69
2020/12/21 11:11:12;;;;;;;87.03;37.67;;;6.20;99.90;;;;;;4911894;29;20678;-69
2020/12/21 11:13:41;;;;;;;92.87;39.87;;;6.20;99.90;;;;;;4897784;29;20661;-69
2020/12/21 11:16:09;;;;;;;96.90;41.00;;;6.20;99.90;;;;;;4903107;29;20223;-69
2020/12/21 11:18:37;;;;;;;87.80;37.47;;;6.20;99.90;;;;;;4912811;29;20210;-69
2020/12/21 11:21:04;;;;;;;89.73;36.93;;;6.20;99.90;;;;;;4942617;28;20259;-69
2020/12/21 11:23:30;;;;;;;79.73;35.23;;;6.20;99.90;;;;;;4963250;28;20775;-69
2020/12/21 11:25:57;;;;;;;89.50;38.60;;;6.20;99.90;;;;;;4984892;28;20304;-68
2020/12/21 11:28:24;;;;;;;87.80;38.30;;;6.20;99.90;;;;;;5006724;28;20594;-68
2020/12/21 11:30:50;;;;;;;88.90;37.70;;;6.20;99.90;;;;;;5020666;28;20240;-68
2020/12/21 11:33:17;;;;;;;80.10;36.10;;;6.20;99.90;;;;;;5026174;28;20732;-68
2020/12/21 11:35:44;;;;;;;88.00;37.17;;;6.20;99.90;;;;;;5079547;28;20207;-68
2020/12/21 11:38:11;;;;;;;82.03;35.50;;;6.20;99.90;;;;;;5089022;28;20718;-69
2020/12/21 11:40:37;;;;;;;79.77;34.90;;;6.20;99.90;;;;;;5088435;28;20644;-68
2020/12/21 11:43:04;;;;;;;70.83;31.80;;;6.20;99.90;;;;;;5089423;28;20289;-68
2020/12/21 11:45:31;;;;;;;78.83;34.13;;;6.20;99.90;;;;;;5067479;28;20208;-69
2020/12/21 11:47:57;;;;;;;87.80;37.87;;;6.20;99.90;;;;;;5068517;28;20220;-68
2020/12/21 11:50:24;;;;;;;86.57;37.23;;;6.20;99.90;;;;;;5068937;28;20211;-69
2020/12/21 11:52:52;;;;;;;75.10;32.90;;;6.20;99.90;;;;;;5065313;28;20676;-69
2020/12/21 11:55:19;;;;;;;77.53;32.47;;;6.20;99.90;;;;;;5064647;28;20238;-69
2020/12/21 11:57:45;;;;;;;78.70;32.80;;;6.20;99.90;;;;;;5063098;28;20200;-69
2020/12/21 12:00:12;;;;;;;83.97;35.40;;;6.20;99.90;;;;;;5066472;28;20252;-69
2020/12/21 12:02:38;;;;;;;75.00;33.47;;;6.20;99.90;;;;;;5068476;28;20215;-69
2020/12/21 12:05:10;;;;;;;82.70;34.20;;;6.20;99.90;;;;;;5068940;28;20206;-69
2020/12/21 12:07:36;;;;;;;81.50;35.53;;;6.20;99.90;;;;;;5088289;28;20580;-68
2020/12/21 12:10:05;;;;;;;86.93;35.23;;;6.20;99.90;;;;;;5067203;28;20687;-69
2020/12/21 12:12:31;;;;;;;95.93;38.73;;;6.10;99.90;;;;;;5009171;28;20197;-69
2020/12/21 12:14:58;;;;;;;83.40;35.73;;;6.10;99.90;;;;;;5009206;28;20226;-69
2020/12/21 12:17:25;;;;;;;85.03;35.03;;;6.10;99.90;;;;;;5025942;28;20212;-69
2020/12/21 12:19:51;;;;;;;77.33;33.00;;;6.10;99.90;;;;;;5017021;28;20262;-69
2020/12/21 12:22:18;;;;;;;84.77;36.73;;;6.10;99.90;;;;;;4990602;28;20227;-69
2020/12/21 12:24:44;;;;;;;84.20;37.43;;;6.10;99.90;;;;;;4991216;28;20242;-69
2020/12/21 12:27:12;;;;;;;88.80;39.60;;;6.10;99.90;;;;;;4990864;28;20221;-68
2020/12/21 12:29:39;;;;;;;91.97;40.27;;;6.00;99.90;;;;;;4989296;28;20210;-68
2020/12/21 12:32:05;;;;;;;86.53;37.53;;;6.00;99.90;;;;;;4990168;28;20675;-68
2020/12/21 12:34:32;;;;;;;86.63;37.17;;;6.00;99.90;;;;;;4990635;28;20811;-69
2020/12/21 12:36:59;;;;;;;79.47;34.63;;;6.00;99.90;;;;;;4990230;28;20210;-69